Sun Universe — 3FOQ4 — position and weather

sailwx.info

Track history (hours):
 
Tides and Currents Weather Stations Pressure Air Temp Water Temp Dewpoint Dewpoint Depression Visibility Wind Speed Wind Dir Waves Ship Positions

Sun Universe

Last reported at 2014-Jul-30 08:33 UTC. Time now 2014-Jul-31 15:38 UTC.
Position N 22°07' E 113°58'.

Length 116 m; draft 5.1 m.

Type: Cargo ship. MMSI: 371647000.

Date/timePositionNaut miles runAvg speedWind from/ knotsBaromVisibWave heightAir tempDewpointWater temp
2014-Jul-30 08:33N 22°07' E 113°58'10 9.7
2014-Jul-30 07:33N 22°09' E 113°48'1111.3
2014-Jul-30 06:33N 22°20' E 113°47'1414.0
2014-Jul-30 05:32N 22°34' E 113°43'3 0.1
2014-Jul-29 00:29N 22°37' E 113°42'1313.1
2014-Jul-28 23:31N 22°25' E 113°46'1111.4
2014-Jul-28 22:33N 22°14' E 113°48'9 8.7
2014-Jul-28 21:33N 22°06' E 113°50'3 3.1
2014-Jul-28 20:29N 22°04' E 113°53'0 0.0
2014-Jul-28 19:23N 22°04' E 113°53'0 0.0
2014-Jul-28 18:23N 22°04' E 113°53'0 0.0
2014-Jul-28 17:23N 22°04' E 113°53'0 0.1
2014-Jul-28 16:29N 22°04' E 113°53'0 0.1
2014-Jul-28 15:29N 22°04' E 113°53'0 0.1
2014-Jul-28 14:29N 22°04' E 113°53'0 0.0
2014-Jul-28 13:17N 22°04' E 113°53'0 0.0
2014-Jul-28 12:23N 22°04' E 113°53'0 0.1
2014-Jul-28 11:23N 22°04' E 113°53'0 0.2
2014-Jul-28 10:23N 22°04' E 113°53'16111.5
2014-Jul-27 20:20N 22°51' E 116°40'1113.0
2014-Jul-27 19:30N 22°56' E 116°50'1312.5
2014-Jul-27 18:26N 23°02' E 117°03'1112.4
2014-Jul-27 17:33N 23°07' E 117°14'3311.1
2014-Jul-27 14:34N 23°28' E 117°42'1110.3
2014-Jul-27 13:32N 23°33' E 117°52'1110.5
2014-Jul-27 12:31N 23°39' E 118°02'1110.9
2014-Jul-27 11:33N 23°45' E 118°11'1111.4
2014-Jul-27 10:33N 23°51' E 118°22'1211.6
2014-Jul-27 09:33N 23°57' E 118°33'1412.0
2014-Jul-27 08:24N 24°04' E 118°45'1012.3
2014-Jul-27 07:33N 24°09' E 118°55'1312.6
2014-Jul-27 06:33N 24°16' E 119°07'3913.0
2014-Jul-27 03:33N 24°37' E 119°43'1312.8
2014-Jul-27 02:33N 24°43' E 119°55'  
2014-Jul-20 18:07N 33°38' E 129°15'813.2
2014-Jul-20 17:31N 33°44' E 129°21'  
Track history (hours):
 
Tides and Currents Weather Stations Pressure Air Temp Water Temp Dewpoint Dewpoint Depression Visibility Wind Speed Wind Dir Waves Ship Positions

Sun Universe

Last reported at 2014-Jul-30 08:33 UTC. Time now 2014-Jul-31 15:38 UTC.
Position N 22°07' E 113°58'.

Length 116 m; draft 5.1 m.

Type: Cargo ship. MMSI: 371647000.

Date/timePositionNaut miles runAvg speedWind from/ knotsBaromVisibWave heightAir tempDewpointWater temp
2014-Jul-30 08:33N 22°07' E 113°58'10 9.7
2014-Jul-30 07:33N 22°09' E 113°48'1111.3
2014-Jul-30 06:33N 22°20' E 113°47'1414.0
2014-Jul-30 05:32N 22°34' E 113°43'3 0.1
2014-Jul-29 00:29N 22°37' E 113°42'1313.1
2014-Jul-28 23:31N 22°25' E 113°46'1111.4
2014-Jul-28 22:33N 22°14' E 113°48'9 8.7
2014-Jul-28 21:33N 22°06' E 113°50'3 3.1
2014-Jul-28 20:29N 22°04' E 113°53'0 0.0
2014-Jul-28 19:23N 22°04' E 113°53'0 0.0
2014-Jul-28 18:23N 22°04' E 113°53'0 0.0
2014-Jul-28 17:23N 22°04' E 113°53'0 0.1
2014-Jul-28 16:29N 22°04' E 113°53'0 0.1
2014-Jul-28 15:29N 22°04' E 113°53'0 0.1
2014-Jul-28 14:29N 22°04' E 113°53'0 0.0
2014-Jul-28 13:17N 22°04' E 113°53'0 0.0
2014-Jul-28 12:23N 22°04' E 113°53'0 0.1
2014-Jul-28 11:23N 22°04' E 113°53'0 0.2
2014-Jul-28 10:23N 22°04' E 113°53'16111.5
2014-Jul-27 20:20N 22°51' E 116°40'1113.0
2014-Jul-27 19:30N 22°56' E 116°50'1312.5
2014-Jul-27 18:26N 23°02' E 117°03'1112.4
2014-Jul-27 17:33N 23°07' E 117°14'3311.1
2014-Jul-27 14:34N 23°28' E 117°42'1110.3
2014-Jul-27 13:32N 23°33' E 117°52'1110.5
2014-Jul-27 12:31N 23°39' E 118°02'1110.9
2014-Jul-27 11:33N 23°45' E 118°11'1111.4
2014-Jul-27 10:33N 23°51' E 118°22'1211.6
2014-Jul-27 09:33N 23°57' E 118°33'1412.0
2014-Jul-27 08:24N 24°04' E 118°45'1012.3
2014-Jul-27 07:33N 24°09' E 118°55'1312.6
2014-Jul-27 06:33N 24°16' E 119°07'3913.0
2014-Jul-27 03:33N 24°37' E 119°43'1312.8
2014-Jul-27 02:33N 24°43' E 119°55'  
2014-Jul-20 18:07N 33°38' E 129°15'813.2
2014-Jul-20 17:31N 33°44' E 129°21'  

Dump ship's entire track history